sensor_id;sensor_type;location;lat;lon;timestamp;P1;durP1;ratioP1;P2;durP2;ratioP2
62353;SDS011;48391;49.184;2.418;2023-11-19T07:02:13;5.13;;;2.08;;
62353;SDS011;48391;49.184;2.418;2023-11-19T07:04:40;5.43;;;2.53;;
62353;SDS011;48391;49.184;2.418;2023-11-19T07:07:06;4.70;;;1.88;;
62353;SDS011;48391;49.184;2.418;2023-11-19T07:09:32;9.05;;;2.28;;
62353;SDS011;48391;49.184;2.418;2023-11-19T07:11:58;5.88;;;1.70;;
62353;SDS011;48391;49.184;2.418;2023-11-19T07:14:26;3.60;;;1.27;;
62353;SDS011;48391;49.184;2.418;2023-11-19T07:16:53;5.05;;;1.42;;
62353;SDS011;48391;49.184;2.418;2023-11-19T07:19:20;5.03;;;1.23;;
62353;SDS011;48391;49.184;2.418;2023-11-19T07:21:46;4.72;;;1.48;;
62353;SDS011;48391;49.184;2.418;2023-11-19T07:24:12;3.33;;;1.20;;
62353;SDS011;48391;49.184;2.418;2023-11-19T07:26:45;7.45;;;1.30;;
62353;SDS011;48391;49.184;2.418;2023-11-19T07:29:12;9.43;;;1.52;;
62353;SDS011;48391;49.184;2.418;2023-11-19T07:31:38;3.33;;;1.30;;
62353;SDS011;48391;49.184;2.418;2023-11-19T07:34:04;2.95;;;1.00;;
62353;SDS011;48391;49.184;2.418;2023-11-19T07:36:31;4.70;;;1.40;;
62353;SDS011;48391;49.184;2.418;2023-11-19T07:38:58;9.98;;;1.42;;
62353;SDS011;48391;49.184;2.418;2023-11-19T07:41:24;5.43;;;1.77;;
62353;SDS011;48391;49.184;2.418;2023-11-19T07:43:50;13.43;;;3.40;;
62353;SDS011;48391;49.184;2.418;2023-11-19T07:46:17;5.07;;;1.77;;
62353;SDS011;48391;49.184;2.418;2023-11-19T07:48:44;5.97;;;1.38;;
62353;SDS011;48391;49.184;2.418;2023-11-19T07:51:12;1.83;;;1.13;;
62353;SDS011;48391;49.184;2.418;2023-11-19T07:53:39;3.30;;;1.00;;
62353;SDS011;48391;49.184;2.418;2023-11-19T07:56:06;4.68;;;1.50;;
62353;SDS011;48391;49.184;2.418;2023-11-19T07:58:32;5.18;;;1.45;;
62353;SDS011;48391;49.184;2.418;2023-11-19T08:00:58;6.80;;;2.47;;
62353;SDS011;48391;49.184;2.418;2023-11-19T08:03:24;4.63;;;1.33;;
62353;SDS011;48391;49.184;2.418;2023-11-19T08:05:50;9.75;;;2.17;;
62353;SDS011;48391;49.184;2.418;2023-11-19T08:08:16;6.40;;;2.20;;
62353;SDS011;48391;49.184;2.418;2023-11-19T08:10:42;4.22;;;1.27;;
62353;SDS011;48391;49.184;2.418;2023-11-19T08:13:09;6.80;;;1.90;;
62353;SDS011;48391;49.184;2.418;2023-11-19T08:15:35;10.30;;;2.10;;
62353;SDS011;48391;49.184;2.418;2023-11-19T08:18:01;7.57;;;2.28;;
62353;SDS011;48391;49.184;2.418;2023-11-19T08:20:27;5.10;;;1.92;;
62353;SDS011;48391;49.184;2.418;2023-11-19T08:22:53;5.53;;;1.92;;
62353;SDS011;48391;49.184;2.418;2023-11-19T08:25:19;7.32;;;1.83;;
62353;SDS011;48391;49.184;2.418;2023-11-19T08:27:45;6.22;;;1.55;;
62353;SDS011;48391;49.184;2.418;2023-11-19T08:30:12;8.82;;;2.85;;
62353;SDS011;48391;49.184;2.418;2023-11-19T08:32:38;4.95;;;1.65;;
62353;SDS011;48391;49.184;2.418;2023-11-19T08:35:04;14.25;;;2.90;;
62353;SDS011;48391;49.184;2.418;2023-11-19T08:37:30;17.23;;;3.90;;
62353;SDS011;48391;49.184;2.418;2023-11-19T08:39:56;9.65;;;2.58;;
62353;SDS011;48391;49.184;2.418;2023-11-19T08:42:22;11.57;;;2.05;;
62353;SDS011;48391;49.184;2.418;2023-11-19T08:44:49;12.35;;;2.40;;
62353;SDS011;48391;49.184;2.418;2023-11-19T08:47:15;9.70;;;2.33;;
62353;SDS011;48391;49.184;2.418;2023-11-19T08:49:43;6.38;;;1.95;;
62353;SDS011;48391;49.184;2.418;2023-11-19T08:52:09;7.18;;;1.85;;
62353;SDS011;48391;49.184;2.418;2023-11-19T08:54:35;11.25;;;3.65;;
62353;SDS011;48391;49.184;2.418;2023-11-19T08:57:02;15.73;;;3.33;;
62353;SDS011;48391;49.184;2.418;2023-11-19T08:59:28;14.45;;;3.65;;
62353;SDS011;48391;49.184;2.418;2023-11-19T09:01:54;12.98;;;2.47;;
62353;SDS011;48391;49.184;2.418;2023-11-19T09:04:21;9.18;;;2.22;;
62353;SDS011;48391;49.184;2.418;2023-11-19T09:06:50;13.63;;;3.92;;
62353;SDS011;48391;49.184;2.418;2023-11-19T09:09:16;9.45;;;2.58;;
62353;SDS011;48391;49.184;2.418;2023-11-19T09:11:42;10.93;;;2.65;;
62353;SDS011;48391;49.184;2.418;2023-11-19T09:14:08;8.38;;;2.47;;
62353;SDS011;48391;49.184;2.418;2023-11-19T09:16:34;17.10;;;3.85;;
62353;SDS011;48391;49.184;2.418;2023-11-19T09:19:00;14.88;;;3.25;;
62353;SDS011;48391;49.184;2.418;2023-11-19T09:21:27;10.40;;;3.08;;
62353;SDS011;48391;49.184;2.418;2023-11-19T09:23:56;11.73;;;4.07;;
62353;SDS011;48391;49.184;2.418;2023-11-19T09:26:22;10.23;;;2.83;;
62353;SDS011;48391;49.184;2.418;2023-11-19T09:28:48;6.45;;;2.88;;
62353;SDS011;48391;49.184;2.418;2023-11-19T09:31:17;9.07;;;2.88;;
62353;SDS011;48391;49.184;2.418;2023-11-19T09:33:44;12.87;;;2.77;;
62353;SDS011;48391;49.184;2.418;2023-11-19T09:36:13;9.48;;;1.92;;
62353;SDS011;48391;49.184;2.418;2023-11-19T09:38:41;12.45;;;2.20;;
62353;SDS011;48391;49.184;2.418;2023-11-19T09:41:09;11.65;;;3.05;;
62353;SDS011;48391;49.184;2.418;2023-11-19T09:43:37;17.20;;;3.57;;
62353;SDS011;48391;49.184;2.418;2023-11-19T09:46:04;15.90;;;3.17;;
62353;SDS011;48391;49.184;2.418;2023-11-19T09:48:35;9.45;;;1.98;;
62353;SDS011;48391;49.184;2.418;2023-11-19T09:51:05;10.63;;;1.90;;
62353;SDS011;48391;49.184;2.418;2023-11-19T09:53:31;12.40;;;2.88;;
62353;SDS011;48391;49.184;2.418;2023-11-19T09:56:01;19.77;;;4.35;;
62353;SDS011;48391;49.184;2.418;2023-11-19T09:58:28;15.55;;;2.65;;
62353;SDS011;48391;49.184;2.418;2023-11-19T10:00:55;10.07;;;3.67;;
62353;SDS011;48391;49.184;2.418;2023-11-19T10:03:23;6.25;;;2.45;;
62353;SDS011;48391;49.184;2.418;2023-11-19T10:05:49;12.95;;;3.60;;
62353;SDS011;48391;49.184;2.418;2023-11-19T10:08:15;15.70;;;3.53;;
62353;SDS011;48391;49.184;2.418;2023-11-19T10:10:42;15.98;;;3.80;;
62353;SDS011;48391;49.184;2.418;2023-11-19T10:13:08;17.42;;;3.50;;
62353;SDS011;48391;49.184;2.418;2023-11-19T10:15:38;10.15;;;2.80;;
62353;SDS011;48391;49.184;2.418;2023-11-19T10:18:04;7.65;;;3.47;;
62353;SDS011;48391;49.184;2.418;2023-11-19T10:20:51;12.88;;;3.50;;
62353;SDS011;48391;49.184;2.418;2023-11-19T10:23:16;20.75;;;3.58;;
62353;SDS011;48391;49.184;2.418;2023-11-19T10:25:42;9.05;;;3.17;;
62353;SDS011;48391;49.184;2.418;2023-11-19T10:28:08;12.85;;;3.55;;
62353;SDS011;48391;49.184;2.418;2023-11-19T10:30:34;10.18;;;3.10;;
62353;SDS011;48391;49.184;2.418;2023-11-19T10:35:30;17.20;;;5.60;;
62353;SDS011;48391;49.184;2.418;2023-11-19T10:37:58;13.65;;;3.47;;
62353;SDS011;48391;49.184;2.418;2023-11-19T10:40:25;11.25;;;3.78;;
62353;SDS011;48391;49.184;2.418;2023-11-19T10:43:03;16.15;;;3.22;;
62353;SDS011;48391;49.184;2.418;2023-11-19T10:45:29;12.95;;;4.28;;
62353;SDS011;48391;49.184;2.418;2023-11-19T10:47:55;11.85;;;3.30;;
62353;SDS011;48391;49.184;2.418;2023-11-19T10:50:22;15.75;;;3.65;;
62353;SDS011;48391;49.184;2.418;2023-11-19T10:52:50;12.80;;;2.60;;
62353;SDS011;48391;49.184;2.418;2023-11-19T10:55:18;7.72;;;3.03;;
62353;SDS011;48391;49.184;2.418;2023-11-19T10:57:46;12.13;;;4.25;;
62353;SDS011;48391;49.184;2.418;2023-11-19T11:00:15;11.80;;;3.13;;
62353;SDS011;48391;49.184;2.418;2023-11-19T11:02:44;13.77;;;4.25;;
62353;SDS011;48391;49.184;2.418;2023-11-19T11:05:12;10.27;;;3.47;;
62353;SDS011;48391;49.184;2.418;2023-11-19T11:07:38;13.57;;;3.92;;
62353;SDS011;48391;49.184;2.418;2023-11-19T11:10:07;12.50;;;3.58;;
62353;SDS011;48391;49.184;2.418;2023-11-19T11:12:37;21.55;;;4.57;;
62353;SDS011;48391;49.184;2.418;2023-11-19T11:17:30;8.70;;;2.42;;
62353;SDS011;48391;49.184;2.418;2023-11-19T11:19:57;11.75;;;2.28;;
62353;SDS011;48391;49.184;2.418;2023-11-19T11:22:23;10.13;;;3.60;;
62353;SDS011;48391;49.184;2.418;2023-11-19T11:35:19;9.43;;;2.97;;
62353;SDS011;48391;49.184;2.418;2023-11-19T11:37:53;14.23;;;3.38;;
62353;SDS011;48391;49.184;2.418;2023-11-19T11:40:21;14.80;;;3.50;;
62353;SDS011;48391;49.184;2.418;2023-11-19T11:42:48;13.82;;;3.70;;
62353;SDS011;48391;49.184;2.418;2023-11-19T11:45:16;8.25;;;2.50;;
62353;SDS011;48391;49.184;2.418;2023-11-19T11:55:23;11.65;;;2.63;;
62353;SDS011;48391;49.184;2.418;2023-11-19T11:57:49;12.57;;;4.20;;
62353;SDS011;48391;49.184;2.418;2023-11-19T12:00:22;10.07;;;3.10;;
62353;SDS011;48391;49.184;2.418;2023-11-19T12:02:48;14.55;;;3.95;;
62353;SDS011;48391;49.184;2.418;2023-11-19T12:05:15;10.75;;;3.13;;
62353;SDS011;48391;49.184;2.418;2023-11-19T12:07:44;12.38;;;2.80;;
62353;SDS011;48391;49.184;2.418;2023-11-19T12:10:20;14.52;;;2.53;;
62353;SDS011;48391;49.184;2.418;2023-11-19T12:12:47;16.63;;;3.28;;
62353;SDS011;48391;49.184;2.418;2023-11-19T12:15:13;14.55;;;3.20;;
62353;SDS011;48391;49.184;2.418;2023-11-19T12:17:48;11.85;;;3.03;;
62353;SDS011;48391;49.184;2.418;2023-11-19T12:20:14;11.50;;;2.83;;
62353;SDS011;48391;49.184;2.418;2023-11-19T12:22:42;9.73;;;3.33;;
62353;SDS011;48391;49.184;2.418;2023-11-19T12:25:09;10.32;;;2.67;;
62353;SDS011;48391;49.184;2.418;2023-11-19T12:27:45;17.15;;;3.33;;
62353;SDS011;48391;49.184;2.418;2023-11-19T12:30:12;20.48;;;4.07;;
62353;SDS011;48391;49.184;2.418;2023-11-19T12:32:41;17.33;;;3.97;;
62353;SDS011;48391;49.184;2.418;2023-11-19T12:35:08;7.85;;;2.80;;
62353;SDS011;48391;49.184;2.418;2023-11-19T12:37:47;11.63;;;3.13;;
62353;SDS011;48391;49.184;2.418;2023-11-19T12:40:17;7.93;;;2.67;;
62353;SDS011;48391;49.184;2.418;2023-11-19T12:42:47;11.45;;;3.08;;
62353;SDS011;48391;49.184;2.418;2023-11-19T12:45:13;16.17;;;3.67;;
62353;SDS011;48391;49.184;2.418;2023-11-19T12:47:41;10.20;;;2.70;;
62353;SDS011;48391;49.184;2.418;2023-11-19T12:50:07;15.63;;;4.00;;
62353;SDS011;48391;49.184;2.418;2023-11-19T12:52:34;10.77;;;3.40;;
62353;SDS011;48391;49.184;2.418;2023-11-19T12:55:01;10.30;;;3.08;;
62353;SDS011;48391;49.184;2.418;2023-11-19T12:57:37;9.90;;;2.50;;
62353;SDS011;48391;49.184;2.418;2023-11-19T13:00:03;27.90;;;3.90;;
62353;SDS011;48391;49.184;2.418;2023-11-19T13:02:49;11.18;;;2.85;;
62353;SDS011;48391;49.184;2.418;2023-11-19T13:07:47;8.32;;;2.08;;
62353;SDS011;48391;49.184;2.418;2023-11-19T13:10:13;7.47;;;2.33;;
62353;SDS011;48391;49.184;2.418;2023-11-19T13:12:40;16.20;;;2.97;;
62353;SDS011;48391;49.184;2.418;2023-11-19T13:15:06;10.30;;;3.55;;
62353;SDS011;48391;49.184;2.418;2023-11-19T13:17:47;10.68;;;3.03;;
62353;SDS011;48391;49.184;2.418;2023-11-19T13:20:13;9.85;;;3.45;;
62353;SDS011;48391;49.184;2.418;2023-11-19T13:23:02;8.02;;;2.95;;
62353;SDS011;48391;49.184;2.418;2023-11-19T13:25:28;12.45;;;2.65;;
62353;SDS011;48391;49.184;2.418;2023-11-19T13:27:55;8.98;;;3.75;;
62353;SDS011;48391;49.184;2.418;2023-11-19T13:30:22;13.18;;;4.40;;
62353;SDS011;48391;49.184;2.418;2023-11-19T13:32:48;13.30;;;2.83;;
62353;SDS011;48391;49.184;2.418;2023-11-19T13:35:15;13.00;;;4.30;;
62353;SDS011;48391;49.184;2.418;2023-11-19T13:37:42;15.63;;;4.60;;
62353;SDS011;48391;49.184;2.418;2023-11-19T13:40:08;14.38;;;3.67;;
62353;SDS011;48391;49.184;2.418;2023-11-19T13:42:35;11.23;;;3.42;;
62353;SDS011;48391;49.184;2.418;2023-11-19T13:45:02;13.95;;;3.50;;
62353;SDS011;48391;49.184;2.418;2023-11-19T13:47:28;9.00;;;2.78;;
62353;SDS011;48391;49.184;2.418;2023-11-19T13:49:54;14.75;;;3.30;;
62353;SDS011;48391;49.184;2.418;2023-11-19T13:52:20;11.57;;;3.15;;
62353;SDS011;48391;49.184;2.418;2023-11-19T13:54:46;9.85;;;3.35;;
62353;SDS011;48391;49.184;2.418;2023-11-19T13:57:12;8.48;;;2.63;;
62353;SDS011;48391;49.184;2.418;2023-11-19T13:59:41;8.63;;;3.30;;
62353;SDS011;48391;49.184;2.418;2023-11-19T14:02:07;11.82;;;3.60;;
62353;SDS011;48391;49.184;2.418;2023-11-19T14:04:33;16.52;;;3.58;;
62353;SDS011;48391;49.184;2.418;2023-11-19T14:06:59;11.32;;;3.05;;
62353;SDS011;48391;49.184;2.418;2023-11-19T14:09:25;9.40;;;2.30;;
62353;SDS011;48391;49.184;2.418;2023-11-19T14:11:51;10.88;;;2.88;;
62353;SDS011;48391;49.184;2.418;2023-11-19T14:14:18;10.88;;;3.22;;
62353;SDS011;48391;49.184;2.418;2023-11-19T14:16:44;8.55;;;3.13;;
62353;SDS011;48391;49.184;2.418;2023-11-19T14:19:11;11.38;;;4.55;;
62353;SDS011;48391;49.184;2.418;2023-11-19T14:21:37;12.60;;;3.30;;
62353;SDS011;48391;49.184;2.418;2023-11-19T14:24:03;10.23;;;2.47;;
62353;SDS011;48391;49.184;2.418;2023-11-19T14:26:29;14.77;;;3.95;;
62353;SDS011;48391;49.184;2.418;2023-11-19T14:28:55;10.27;;;2.90;;
62353;SDS011;48391;49.184;2.418;2023-11-19T14:31:21;10.80;;;2.63;;
62353;SDS011;48391;49.184;2.418;2023-11-19T14:33:47;11.60;;;3.60;;
62353;SDS011;48391;49.184;2.418;2023-11-19T14:36:14;16.73;;;3.22;;
62353;SDS011;48391;49.184;2.418;2023-11-19T14:38:40;10.00;;;3.97;;
62353;SDS011;48391;49.184;2.418;2023-11-19T14:41:06;9.57;;;3.90;;
62353;SDS011;48391;49.184;2.418;2023-11-19T14:43:32;9.20;;;2.67;;
62353;SDS011;48391;49.184;2.418;2023-11-19T14:45:58;10.23;;;3.25;;
62353;SDS011;48391;49.184;2.418;2023-11-19T14:48:25;9.60;;;2.97;;
62353;SDS011;48391;49.184;2.418;2023-11-19T14:50:52;11.75;;;3.75;;
62353;SDS011;48391;49.184;2.418;2023-11-19T14:53:18;7.22;;;2.50;;
62353;SDS011;48391;49.184;2.418;2023-11-19T14:55:45;10.75;;;3.03;;
62353;SDS011;48391;49.184;2.418;2023-11-19T14:58:11;8.40;;;2.63;;
62353;SDS011;48391;49.184;2.418;2023-11-19T15:00:38;11.85;;;3.78;;
62353;SDS011;48391;49.184;2.418;2023-11-19T15:03:04;9.10;;;3.80;;
62353;SDS011;48391;49.184;2.418;2023-11-19T15:05:31;11.30;;;3.55;;
62353;SDS011;48391;49.184;2.418;2023-11-19T15:07:57;7.10;;;2.60;;
62353;SDS011;48391;49.184;2.418;2023-11-19T15:10:23;8.77;;;2.85;;
62353;SDS011;48391;49.184;2.418;2023-11-19T15:12:49;14.15;;;2.75;;
62353;SDS011;48391;49.184;2.418;2023-11-19T15:15:16;9.07;;;3.03;;
62353;SDS011;48391;49.184;2.418;2023-11-19T15:17:42;12.68;;;2.72;;
62353;SDS011;48391;49.184;2.418;2023-11-19T15:20:08;13.35;;;3.47;;
62353;SDS011;48391;49.184;2.418;2023-11-19T15:22:34;6.15;;;2.25;;
62353;SDS011;48391;49.184;2.418;2023-11-19T15:25:00;6.95;;;3.40;;
62353;SDS011;48391;49.184;2.418;2023-11-19T15:27:26;11.70;;;3.22;;
62353;SDS011;48391;49.184;2.418;2023-11-19T15:29:52;11.70;;;3.28;;
62353;SDS011;48391;49.184;2.418;2023-11-19T15:32:18;11.30;;;3.20;;
62353;SDS011;48391;49.184;2.418;2023-11-19T15:34:44;9.60;;;2.70;;
62353;SDS011;48391;49.184;2.418;2023-11-19T15:37:10;10.85;;;3.00;;
62353;SDS011;48391;49.184;2.418;2023-11-19T15:39:38;12.70;;;3.88;;
62353;SDS011;48391;49.184;2.418;2023-11-19T15:42:04;15.20;;;3.08;;
62353;SDS011;48391;49.184;2.418;2023-11-19T15:44:30;10.32;;;2.90;;
62353;SDS011;48391;49.184;2.418;2023-11-19T15:46:56;7.53;;;2.80;;
62353;SDS011;48391;49.184;2.418;2023-11-19T15:49:22;12.82;;;2.95;;
62353;SDS011;48391;49.184;2.418;2023-11-19T15:51:48;12.25;;;2.58;;
62353;SDS011;48391;49.184;2.418;2023-11-19T15:54:14;9.07;;;2.45;;
62353;SDS011;48391;49.184;2.418;2023-11-19T15:56:40;7.40;;;2.53;;
62353;SDS011;48391;49.184;2.418;2023-11-19T15:59:06;13.10;;;3.70;;
62353;SDS011;48391;49.184;2.418;2023-11-19T16:01:33;10.95;;;3.60;;
62353;SDS011;48391;49.184;2.418;2023-11-19T16:03:59;9.88;;;3.60;;
62353;SDS011;48391;49.184;2.418;2023-11-19T16:06:25;11.00;;;3.00;;
62353;SDS011;48391;49.184;2.418;2023-11-19T16:08:51;10.73;;;4.22;;
62353;SDS011;48391;49.184;2.418;2023-11-19T16:11:17;17.42;;;4.07;;
62353;SDS011;48391;49.184;2.418;2023-11-19T16:13:43;9.32;;;3.97;;
62353;SDS011;48391;49.184;2.418;2023-11-19T16:16:09;8.55;;;3.67;;
62353;SDS011;48391;49.184;2.418;2023-11-19T16:18:35;6.90;;;3.25;;
62353;SDS011;48391;49.184;2.418;2023-11-19T16:21:01;11.35;;;3.17;;
62353;SDS011;48391;49.184;2.418;2023-11-19T16:23:27;13.32;;;4.32;;
62353;SDS011;48391;49.184;2.418;2023-11-19T16:25:53;12.50;;;4.13;;
62353;SDS011;48391;49.184;2.418;2023-11-19T16:28:19;13.15;;;3.92;;
62353;SDS011;48391;49.184;2.418;2023-11-19T16:30:45;6.95;;;3.85;;
62353;SDS011;48391;49.184;2.418;2023-11-19T16:33:11;4.65;;;2.50;;
62353;SDS011;48391;49.184;2.418;2023-11-19T16:35:37;10.27;;;3.80;;
62353;SDS011;48391;49.184;2.418;2023-11-19T16:38:03;13.48;;;4.80;;
62353;SDS011;48391;49.184;2.418;2023-11-19T16:40:31;10.50;;;2.75;;
62353;SDS011;48391;49.184;2.418;2023-11-19T16:42:57;23.80;;;8.63;;
62353;SDS011;48391;49.184;2.418;2023-11-19T16:45:23;16.35;;;7.30;;
62353;SDS011;48391;49.184;2.418;2023-11-19T16:47:49;20.40;;;7.55;;
62353;SDS011;48391;49.184;2.418;2023-11-19T16:50:16;24.05;;;7.20;;
62353;SDS011;48391;49.184;2.418;2023-11-19T16:52:44;11.68;;;5.10;;
62353;SDS011;48391;49.184;2.418;2023-11-19T16:55:10;14.75;;;6.50;;
62353;SDS011;48391;49.184;2.418;2023-11-19T16:57:40;19.30;;;7.53;;
62353;SDS011;48391;49.184;2.418;2023-11-19T17:00:06;10.45;;;3.67;;
62353;SDS011;48391;49.184;2.418;2023-11-19T17:02:33;7.60;;;2.90;;
62353;SDS011;48391;49.184;2.418;2023-11-19T17:04:59;11.48;;;3.92;;
62353;SDS011;48391;49.184;2.418;2023-11-19T17:07:25;8.15;;;3.08;;
62353;SDS011;48391;49.184;2.418;2023-11-19T17:09:51;14.10;;;6.85;;
62353;SDS011;48391;49.184;2.418;2023-11-19T17:12:17;16.00;;;5.18;;
62353;SDS011;48391;49.184;2.418;2023-11-19T17:14:43;12.27;;;5.13;;
62353;SDS011;48391;49.184;2.418;2023-11-19T17:17:09;10.75;;;4.78;;
62353;SDS011;48391;49.184;2.418;2023-11-19T17:19:35;12.68;;;5.63;;
62353;SDS011;48391;49.184;2.418;2023-11-19T17:22:01;15.55;;;7.50;;
62353;SDS011;48391;49.184;2.418;2023-11-19T17:24:28;13.13;;;4.22;;
62353;SDS011;48391;49.184;2.418;2023-11-19T17:26:54;13.45;;;4.03;;
62353;SDS011;48391;49.184;2.418;2023-11-19T17:29:20;9.57;;;3.33;;
62353;SDS011;48391;49.184;2.418;2023-11-19T17:31:47;16.33;;;5.15;;
62353;SDS011;48391;49.184;2.418;2023-11-19T17:34:13;15.13;;;4.57;;
62353;SDS011;48391;49.184;2.418;2023-11-19T17:36:39;14.75;;;5.68;;
62353;SDS011;48391;49.184;2.418;2023-11-19T17:39:05;12.70;;;4.15;;
62353;SDS011;48391;49.184;2.418;2023-11-19T17:41:32;10.68;;;4.05;;
62353;SDS011;48391;49.184;2.418;2023-11-19T17:43:58;18.88;;;3.92;;
62353;SDS011;48391;49.184;2.418;2023-11-19T17:46:25;11.38;;;5.88;;
62353;SDS011;48391;49.184;2.418;2023-11-19T17:48:51;10.20;;;4.38;;
62353;SDS011;48391;49.184;2.418;2023-11-19T17:51:17;14.88;;;4.95;;
62353;SDS011;48391;49.184;2.418;2023-11-19T17:53:44;14.13;;;3.88;;
62353;SDS011;48391;49.184;2.418;2023-11-19T17:56:10;17.90;;;5.97;;
62353;SDS011;48391;49.184;2.418;2023-11-19T17:58:36;23.15;;;7.70;;
62353;SDS011;48391;49.184;2.418;2023-11-19T18:01:03;16.45;;;5.50;;
62353;SDS011;48391;49.184;2.418;2023-11-19T18:03:30;21.38;;;5.80;;
62353;SDS011;48391;49.184;2.418;2023-11-19T18:05:56;13.43;;;5.95;;
62353;SDS011;48391;49.184;2.418;2023-11-19T18:08:22;22.30;;;6.10;;
62353;SDS011;48391;49.184;2.418;2023-11-19T18:10:48;12.80;;;5.00;;
62353;SDS011;48391;49.184;2.418;2023-11-19T18:13:14;13.48;;;6.30;;
62353;SDS011;48391;49.184;2.418;2023-11-19T18:15:41;17.20;;;6.82;;
62353;SDS011;48391;49.184;2.418;2023-11-19T18:18:07;14.27;;;4.35;;
62353;SDS011;48391;49.184;2.418;2023-11-19T18:20:37;14.18;;;4.32;;
62353;SDS011;48391;49.184;2.418;2023-11-19T18:23:03;19.40;;;3.75;;
62353;SDS011;48391;49.184;2.418;2023-11-19T18:25:29;12.68;;;4.38;;
62353;SDS011;48391;49.184;2.418;2023-11-19T18:27:57;13.70;;;3.40;;
62353;SDS011;48391;49.184;2.418;2023-11-19T18:30:23;11.80;;;3.85;;
62353;SDS011;48391;49.184;2.418;2023-11-19T18:32:49;20.35;;;5.40;;
62353;SDS011;48391;49.184;2.418;2023-11-19T18:35:15;14.93;;;4.05;;
62353;SDS011;48391;49.184;2.418;2023-11-19T18:37:48;10.25;;;4.10;;
62353;SDS011;48391;49.184;2.418;2023-11-19T18:40:14;10.43;;;4.10;;
62353;SDS011;48391;49.184;2.418;2023-11-19T18:42:44;15.50;;;4.00;;
62353;SDS011;48391;49.184;2.418;2023-11-19T18:45:10;14.15;;;5.05;;
62353;SDS011;48391;49.184;2.418;2023-11-19T18:47:36;13.40;;;4.50;;
62353;SDS011;48391;49.184;2.418;2023-11-19T18:50:03;11.20;;;3.53;;
62353;SDS011;48391;49.184;2.418;2023-11-19T18:52:30;15.48;;;5.40;;
62353;SDS011;48391;49.184;2.418;2023-11-19T18:54:56;12.43;;;4.28;;
62353;SDS011;48391;49.184;2.418;2023-11-19T18:57:23;9.65;;;3.20;;
62353;SDS011;48391;49.184;2.418;2023-11-19T18:59:49;13.82;;;4.13;;
62353;SDS011;48391;49.184;2.418;2023-11-19T19:02:15;11.82;;;3.95;;
62353;SDS011;48391;49.184;2.418;2023-11-19T19:04:41;11.48;;;4.25;;
62353;SDS011;48391;49.184;2.418;2023-11-19T19:07:07;20.52;;;4.65;;
62353;SDS011;48391;49.184;2.418;2023-11-19T19:09:34;13.82;;;3.80;;
62353;SDS011;48391;49.184;2.418;2023-11-19T19:12:00;14.35;;;4.38;;
62353;SDS011;48391;49.184;2.418;2023-11-19T19:14:26;12.98;;;3.47;;
62353;SDS011;48391;49.184;2.418;2023-11-19T19:16:52;15.05;;;3.42;;
62353;SDS011;48391;49.184;2.418;2023-11-19T19:19:19;16.55;;;4.53;;
62353;SDS011;48391;49.184;2.418;2023-11-19T19:21:45;11.55;;;3.25;;
62353;SDS011;48391;49.184;2.418;2023-11-19T19:24:11;14.75;;;4.18;;
62353;SDS011;48391;49.184;2.418;2023-11-19T19:26:39;12.50;;;3.95;;
62353;SDS011;48391;49.184;2.418;2023-11-19T19:29:06;11.40;;;3.67;;
62353;SDS011;48391;49.184;2.418;2023-11-19T19:31:32;20.52;;;5.03;;
62353;SDS011;48391;49.184;2.418;2023-11-19T19:33:58;11.70;;;3.15;;
62353;SDS011;48391;49.184;2.418;2023-11-19T19:36:25;18.80;;;4.47;;
62353;SDS011;48391;49.184;2.418;2023-11-19T19:38:53;15.80;;;4.35;;
62353;SDS011;48391;49.184;2.418;2023-11-19T19:41:19;13.70;;;4.68;;
62353;SDS011;48391;49.184;2.418;2023-11-19T19:43:45;10.88;;;3.88;;
62353;SDS011;48391;49.184;2.418;2023-11-19T19:46:12;14.15;;;4.00;;
62353;SDS011;48391;49.184;2.418;2023-11-19T19:48:38;17.45;;;6.38;;
62353;SDS011;48391;49.184;2.418;2023-11-19T19:51:04;15.23;;;3.47;;
62353;SDS011;48391;49.184;2.418;2023-11-19T19:53:32;9.98;;;4.95;;
62353;SDS011;48391;49.184;2.418;2023-11-19T19:55:58;12.13;;;3.85;;
62353;SDS011;48391;49.184;2.418;2023-11-19T19:58:25;17.55;;;5.05;;
62353;SDS011;48391;49.184;2.418;2023-11-19T20:00:51;15.35;;;4.15;;
62353;SDS011;48391;49.184;2.418;2023-11-19T20:03:17;16.33;;;5.25;;
62353;SDS011;48391;49.184;2.418;2023-11-19T20:05:43;12.13;;;4.82;;
62353;SDS011;48391;49.184;2.418;2023-11-19T20:08:09;19.90;;;5.07;;
62353;SDS011;48391;49.184;2.418;2023-11-19T20:10:35;25.77;;;7.75;;
62353;SDS011;48391;49.184;2.418;2023-11-19T20:13:02;11.50;;;5.47;;
62353;SDS011;48391;49.184;2.418;2023-11-19T20:15:37;9.05;;;4.10;;
62353;SDS011;48391;49.184;2.418;2023-11-19T20:18:03;15.20;;;4.78;;
62353;SDS011;48391;49.184;2.418;2023-11-19T20:20:39;22.45;;;8.32;;
62353;SDS011;48391;49.184;2.418;2023-11-19T20:23:05;13.95;;;5.40;;
62353;SDS011;48391;49.184;2.418;2023-11-19T20:25:32;14.98;;;4.93;;
62353;SDS011;48391;49.184;2.418;2023-11-19T20:27:58;10.60;;;3.53;;
62353;SDS011;48391;49.184;2.418;2023-11-19T20:30:24;26.55;;;12.35;;
62353;SDS011;48391;49.184;2.418;2023-11-19T20:32:50;18.02;;;6.30;;
62353;SDS011;48391;49.184;2.418;2023-11-19T20:35:16;9.15;;;4.50;;
62353;SDS011;48391;49.184;2.418;2023-11-19T20:37:43;19.83;;;7.03;;
62353;SDS011;48391;49.184;2.418;2023-11-19T20:40:09;17.30;;;5.95;;
62353;SDS011;48391;49.184;2.418;2023-11-19T20:42:36;16.00;;;5.97;;
62353;SDS011;48391;49.184;2.418;2023-11-19T20:45:03;12.82;;;5.05;;
62353;SDS011;48391;49.184;2.418;2023-11-19T20:47:30;9.13;;;3.88;;
62353;SDS011;48391;49.184;2.418;2023-11-19T20:49:56;14.70;;;5.25;;
62353;SDS011;48391;49.184;2.418;2023-11-19T20:52:22;12.35;;;3.83;;
62353;SDS011;48391;49.184;2.418;2023-11-19T20:54:48;15.77;;;4.47;;
62353;SDS011;48391;49.184;2.418;2023-11-19T20:57:14;19.38;;;6.05;;
62353;SDS011;48391;49.184;2.418;2023-11-19T20:59:40;9.27;;;3.20;;
62353;SDS011;48391;49.184;2.418;2023-11-19T21:02:06;18.83;;;5.15;;
62353;SDS011;48391;49.184;2.418;2023-11-19T21:04:32;19.35;;;5.25;;
62353;SDS011;48391;49.184;2.418;2023-11-19T21:06:58;17.88;;;4.43;;
62353;SDS011;48391;49.184;2.418;2023-11-19T21:09:24;12.45;;;3.78;;
62353;SDS011;48391;49.184;2.418;2023-11-19T21:11:51;19.50;;;3.88;;
62353;SDS011;48391;49.184;2.418;2023-11-19T21:14:17;17.25;;;4.38;;
62353;SDS011;48391;49.184;2.418;2023-11-19T21:16:43;17.38;;;4.40;;
62353;SDS011;48391;49.184;2.418;2023-11-19T21:19:09;15.25;;;3.85;;
62353;SDS011;48391;49.184;2.418;2023-11-19T21:21:36;17.92;;;4.35;;
62353;SDS011;48391;49.184;2.418;2023-11-19T21:24:03;11.88;;;3.60;;
62353;SDS011;48391;49.184;2.418;2023-11-19T21:26:29;10.07;;;3.13;;
62353;SDS011;48391;49.184;2.418;2023-11-19T21:28:55;18.45;;;4.35;;
62353;SDS011;48391;49.184;2.418;2023-11-19T21:31:21;11.20;;;3.83;;
62353;SDS011;48391;49.184;2.418;2023-11-19T21:33:47;18.48;;;4.20;;
62353;SDS011;48391;49.184;2.418;2023-11-19T21:36:13;12.63;;;5.18;;
62353;SDS011;48391;49.184;2.418;2023-11-19T21:38:39;12.80;;;3.83;;
62353;SDS011;48391;49.184;2.418;2023-11-19T21:41:05;13.07;;;3.38;;
62353;SDS011;48391;49.184;2.418;2023-11-19T21:43:32;12.55;;;3.97;;
62353;SDS011;48391;49.184;2.418;2023-11-19T21:45:58;11.68;;;3.70;;
62353;SDS011;48391;49.184;2.418;2023-11-19T21:48:24;9.30;;;3.25;;
62353;SDS011;48391;49.184;2.418;2023-11-19T21:51:05;10.15;;;3.85;;
62353;SDS011;48391;49.184;2.418;2023-11-19T21:53:35;11.90;;;3.35;;
62353;SDS011;48391;49.184;2.418;2023-11-19T21:56:03;6.53;;;2.40;;
62353;SDS011;48391;49.184;2.418;2023-11-19T21:58:29;8.57;;;2.70;;
62353;SDS011;48391;49.184;2.418;2023-11-19T22:00:56;13.40;;;2.45;;
62353;SDS011;48391;49.184;2.418;2023-11-19T22:03:22;10.43;;;3.75;;